Time;durP1;ratioP1;P1;durP2;ratioP2;P2;SDS_P1;SDS_P2;PMS_P1;PMS_P2;Temp;Humidity;BMP_temperature;BMP_pressure;BME280_temperature;BME280_humidity;BME280_pressure;Samples;Min_cycle;Max_cycle;Signal;HPM_P1;HPM_P2
2022/12/29 00:01:52;;;;;;;6.80;6.20;;;;;;;;;;5053280;28;20415;-89
2022/12/29 00:04:19;;;;;;;6.90;6.30;;;;;;;;;;5052975;28;20457;-87
2022/12/29 00:06:45;;;;;;;6.53;5.95;;;;;;;;;;5053036;28;20377;-88
2022/12/29 00:09:15;;;;;;;7.50;6.90;;;;;;;;;;5052862;28;20591;-88
2022/12/29 00:11:41;;;;;;;7.90;7.10;;;;;;;;;;5052977;28;20384;-86
2022/12/29 00:16:51;;;;;;;7.00;6.40;;;;;;;;;;5051453;28;20405;-87
2022/12/29 00:36:03;;;;;;;7.72;6.93;;;;;;;;;;5054349;28;20418;-88
2022/12/29 00:44:06;;;;;;;6.82;6.22;;;;;;;;;;5054009;28;20404;-88
2022/12/29 00:46:32;;;;;;;6.80;6.20;;;;;;;;;;5054153;28;20739;-88
2022/12/29 00:51:43;;;;;;;7.53;6.82;;;;;;;;;;5053221;28;20412;-88
2022/12/29 00:54:09;;;;;;;7.13;6.50;;;;;;;;;;5051662;28;20432;-87
2022/12/29 00:56:35;;;;;;;7.07;6.38;;;;;;;;;;5052828;28;20381;-88
2022/12/29 00:59:02;;;;;;;7.35;6.60;;;;;;;;;;5035172;28;20452;-88
2022/12/29 01:01:28;;;;;;;7.13;6.30;;;;;;;;;;5053577;28;20409;-87
2022/12/29 01:03:54;;;;;;;6.28;5.78;;;;;;;;;;5053718;28;20409;-87
2022/12/29 01:06:20;;;;;;;7.07;6.38;;;;;;;;;;5053433;28;20885;-87
2022/12/29 01:08:46;;;;;;;6.18;5.68;;;;;;;;;;5052533;28;20369;-87
2022/12/29 01:11:13;;;;;;;6.63;6.03;;;;;;;;;;5053534;28;20882;-87
2022/12/29 01:13:40;;;;;;;6.38;5.78;;;;;;;;;;5053610;28;20412;-87
2022/12/29 01:16:07;;;;;;;6.43;5.88;;;;;;;;;;5053514;28;20483;-88
2022/12/29 01:18:33;;;;;;;6.88;6.18;;;;;;;;;;5053422;28;20378;-87
2022/12/29 01:21:03;;;;;;;6.35;5.85;;;;;;;;;;5044649;28;20386;-87
2022/12/29 01:23:29;;;;;;;5.65;5.20;;;;;;;;;;5039366;28;20409;-87
2022/12/29 01:25:55;;;;;;;6.07;5.47;;;;;;;;;;5053233;28;20855;-87
2022/12/29 01:28:22;;;;;;;6.70;5.57;;;;;;;;;;5053255;28;20944;-89
2022/12/29 01:30:48;;;;;;;5.60;5.15;;;;;;;;;;5053085;28;20735;-87
2022/12/29 01:33:14;;;;;;;6.03;5.53;;;;;;;;;;5053005;28;20385;-86
2022/12/29 01:35:40;;;;;;;5.53;5.05;;;;;;;;;;5053171;28;20455;-89
2022/12/29 01:38:07;;;;;;;5.25;4.85;;;;;;;;;;5053091;28;20413;-87
2022/12/29 01:40:33;;;;;;;5.45;4.88;;;;;;;;;;5053064;28;20431;-88
2022/12/29 01:42:59;;;;;;;5.03;4.60;;;;;;;;;;5052887;28;20430;-87
2022/12/29 01:45:25;;;;;;;5.07;4.68;;;;;;;;;;5052829;28;20389;-87
2022/12/29 01:47:58;;;;;;;4.78;4.38;;;;;;;;;;5052943;28;20726;-87
2022/12/29 01:50:31;;;;;;;5.03;4.60;;;;;;;;;;5051748;28;20392;-88
2022/12/29 01:53:02;;;;;;;4.50;4.20;;;;;;;;;;5052683;28;20915;-87
2022/12/29 01:55:29;;;;;;;4.93;4.53;;;;;;;;;;5050415;28;20394;-87
2022/12/29 01:57:57;;;;;;;4.78;4.38;;;;;;;;;;5052272;28;20424;-88
2022/12/29 02:00:23;;;;;;;4.63;4.22;;;;;;;;;;5052182;28;20416;-87
2022/12/29 02:02:51;;;;;;;5.00;4.43;;;;;;;;;;5052515;28;20496;-86
2022/12/29 02:05:20;;;;;;;4.50;4.10;;;;;;;;;;5034710;28;20373;-87
2022/12/29 02:07:47;;;;;;;4.38;3.97;;;;;;;;;;5052490;28;20386;-87
2022/12/29 02:10:13;;;;;;;5.00;4.50;;;;;;;;;;5034720;28;20394;-87
2022/12/29 02:12:39;;;;;;;4.72;4.10;;;;;;;;;;5052241;28;20388;-89
2022/12/29 02:15:06;;;;;;;4.55;4.15;;;;;;;;;;5048190;28;20456;-88
2022/12/29 02:18:01;;;;;;;4.25;3.85;;;;;;;;;;5052170;28;20389;-87
2022/12/29 02:20:27;;;;;;;3.97;3.67;;;;;;;;;;5030794;28;20394;-88
2022/12/29 02:22:59;;;;;;;4.00;3.70;;;;;;;;;;5052109;28;20401;-89
2022/12/29 02:25:31;;;;;;;4.75;4.25;;;;;;;;;;5052207;28;20389;-87
2022/12/29 02:28:04;;;;;;;4.80;4.40;;;;;;;;;;5041810;28;20387;-88
2022/12/29 02:30:48;;;;;;;4.40;4.00;;;;;;;;;;5051920;28;20420;-89
2022/12/29 02:33:14;;;;;;;4.13;3.70;;;;;;;;;;5051979;28;20381;-87
2022/12/29 02:35:40;;;;;;;4.97;4.17;;;;;;;;;;5051910;28;20446;-86
2022/12/29 02:38:06;;;;;;;5.03;4.50;;;;;;;;;;5051912;28;20389;-88
2022/12/29 02:40:40;;;;;;;4.93;4.50;;;;;;;;;;5034285;28;20417;-87
2022/12/29 02:43:15;;;;;;;4.80;4.40;;;;;;;;;;5052165;28;20962;-87
2022/12/29 02:45:56;;;;;;;4.50;4.10;;;;;;;;;;5048413;28;20389;-86
2022/12/29 02:48:28;;;;;;;4.77;4.37;;;;;;;;;;5043446;28;20862;-87
2022/12/29 02:51:13;;;;;;;5.20;4.70;;;;;;;;;;5049702;28;20930;-87
2022/12/29 02:56:24;;;;;;;5.30;4.80;;;;;;;;;;5051308;28;20376;-86
2022/12/29 02:58:50;;;;;;;5.53;5.03;;;;;;;;;;5051004;28;20464;-87
2022/12/29 03:01:34;;;;;;;4.80;4.40;;;;;;;;;;5050932;28;20504;-87
2022/12/29 03:04:19;;;;;;;4.72;4.32;;;;;;;;;;5051408;28;20886;-88
2022/12/29 03:06:54;;;;;;;4.87;4.33;;;;;;;;;;5051781;28;20415;-88
2022/12/29 03:09:29;;;;;;;5.00;4.50;;;;;;;;;;5051456;28;20407;-87
2022/12/29 03:12:08;;;;;;;5.00;4.50;;;;;;;;;;5033668;28;20822;-87
2022/12/29 03:17:28;;;;;;;4.45;4.13;;;;;;;;;;5051530;28;20373;-87
2022/12/29 03:19:56;;;;;;;4.65;4.20;;;;;;;;;;5049450;28;20385;-87
2022/12/29 03:22:32;;;;;;;4.18;3.83;;;;;;;;;;5051383;28;20401;-88
2022/12/29 03:25:15;;;;;;;4.15;3.75;;;;;;;;;;5051432;28;20374;-88
2022/12/29 03:28:01;;;;;;;4.72;4.25;;;;;;;;;;5051407;28;20369;-86
2022/12/29 03:30:28;;;;;;;5.10;4.60;;;;;;;;;;5051715;28;20486;-86
2022/12/29 03:33:02;;;;;;;4.75;4.25;;;;;;;;;;5055425;28;20434;-88
2022/12/29 03:35:30;;;;;;;6.13;3.90;;;;;;;;;;5042169;28;20435;-87
2022/12/29 03:38:05;;;;;;;4.30;3.90;;;;;;;;;;5037429;28;20754;-89
2022/12/29 03:40:32;;;;;;;3.85;3.40;;;;;;;;;;5055265;28;20381;-87
2022/12/29 03:42:58;;;;;;;3.90;3.50;;;;;;;;;;5055231;28;20401;-87
2022/12/29 03:45:25;;;;;;;4.75;3.58;;;;;;;;;;5037161;28;20797;-86
2022/12/29 03:47:52;;;;;;;4.13;3.78;;;;;;;;;;5055176;28;20392;-87
2022/12/29 03:50:18;;;;;;;4.60;4.20;;;;;;;;;;5054984;28;20385;-88
2022/12/29 03:52:44;;;;;;;5.03;3.95;;;;;;;;;;5053622;28;20435;-88
2022/12/29 03:55:10;;;;;;;4.22;3.83;;;;;;;;;;5036753;28;20742;-87
2022/12/29 03:57:36;;;;;;;4.38;3.97;;;;;;;;;;5054642;28;20396;-88
2022/12/29 04:00:03;;;;;;;3.83;3.53;;;;;;;;;;5054528;28;20401;-87
2022/12/29 04:02:29;;;;;;;3.97;3.67;;;;;;;;;;5054176;28;20413;-88
2022/12/29 04:04:55;;;;;;;3.80;3.50;;;;;;;;;;5027119;28;20381;-88
2022/12/29 04:07:21;;;;;;;3.97;3.45;;;;;;;;;;5054785;28;20964;-87
2022/12/29 04:09:47;;;;;;;3.70;3.40;;;;;;;;;;5054707;28;20460;-88
2022/12/29 04:12:14;;;;;;;7.10;5.20;;;;;;;;;;5054751;28;20385;-87
2022/12/29 04:14:40;;;;;;;11.95;8.15;;;;;;;;;;5054561;28;20464;-89
2022/12/29 04:17:06;;;;;;;11.55;7.70;;;;;;;;;;5054648;28;20421;-88
2022/12/29 04:19:32;;;;;;;4.93;4.38;;;;;;;;;;5051265;28;20416;-87
2022/12/29 04:21:58;;;;;;;10.25;7.00;;;;;;;;;;5042816;28;20381;-87
2022/12/29 04:24:24;;;;;;;12.13;8.63;;;;;;;;;;5054553;28;20907;-88
2022/12/29 04:26:50;;;;;;;15.45;9.85;;;;;;;;;;5054270;28;20396;-88
2022/12/29 04:29:16;;;;;;;12.02;8.38;;;;;;;;;;5054343;28;20378;-87
2022/12/29 04:31:42;;;;;;;6.90;5.57;;;;;;;;;;5054173;28;20381;-88
2022/12/29 04:34:08;;;;;;;9.32;6.80;;;;;;;;;;5054341;28;20515;-87
2022/12/29 04:36:34;;;;;;;5.30;4.40;;;;;;;;;;5045929;28;20876;-86
2022/12/29 04:39:00;;;;;;;4.85;4.35;;;;;;;;;;5054227;28;20388;-89
2022/12/29 04:41:26;;;;;;;3.28;2.78;;;;;;;;;;5054348;28;20377;-87
2022/12/29 04:43:52;;;;;;;3.83;2.33;;;;;;;;;;5053965;28;20401;-88
2022/12/29 04:46:18;;;;;;;2.67;2.00;;;;;;;;;;5036579;28;20381;-87
2022/12/29 04:48:44;;;;;;;2.80;2.25;;;;;;;;;;5053961;28;20476;-88
2022/12/29 04:51:10;;;;;;;2.30;2.10;;;;;;;;;;5058255;28;20859;-88
2022/12/29 04:53:36;;;;;;;2.93;2.10;;;;;;;;;;5052539;28;20389;-87
2022/12/29 04:56:02;;;;;;;2.22;1.98;;;;;;;;;;5053345;28;20389;-88
2022/12/29 04:58:28;;;;;;;2.67;1.80;;;;;;;;;;5048613;28;20458;-87
2022/12/29 05:00:54;;;;;;;2.28;2.08;;;;;;;;;;5052966;28;20493;-86
2022/12/29 05:03:20;;;;;;;2.28;2.05;;;;;;;;;;5035875;28;20409;-87
2022/12/29 05:05:46;;;;;;;2.53;2.00;;;;;;;;;;5053675;28;20412;-88
2022/12/29 05:08:12;;;;;;;2.35;2.00;;;;;;;;;;5053738;28;20384;-89
2022/12/29 05:10:38;;;;;;;2.42;2.22;;;;;;;;;;5053564;28;20854;-88
2022/12/29 05:13:04;;;;;;;3.50;2.20;;;;;;;;;;5042323;28;20404;-87
2022/12/29 05:15:30;;;;;;;2.90;1.95;;;;;;;;;;5053647;28;20381;-87
2022/12/29 05:17:56;;;;;;;2.25;2.05;;;;;;;;;;5053501;28;20523;-88
2022/12/29 05:20:22;;;;;;;2.50;2.30;;;;;;;;;;5053387;28;20461;-88
2022/12/29 05:22:48;;;;;;;3.30;2.00;;;;;;;;;;5053369;28;20466;-88
2022/12/29 05:25:14;;;;;;;2.80;2.17;;;;;;;;;;5053404;28;20386;-86
2022/12/29 05:27:40;;;;;;;5.25;2.33;;;;;;;;;;5045257;28;20402;-87
2022/12/29 05:30:06;;;;;;;3.25;2.30;;;;;;;;;;5037339;28;20382;-87
2022/12/29 05:32:32;;;;;;;2.60;2.28;;;;;;;;;;5035775;28;20908;-87
2022/12/29 05:34:58;;;;;;;2.70;2.17;;;;;;;;;;5049941;28;20385;-87
2022/12/29 05:37:24;;;;;;;2.45;2.22;;;;;;;;;;5053251;28;20382;-87
2022/12/29 05:39:50;;;;;;;3.13;2.30;;;;;;;;;;5035413;28;20417;-87
2022/12/29 05:42:16;;;;;;;2.92;2.60;;;;;;;;;;5052996;28;20409;-87
2022/12/29 05:44:42;;;;;;;2.63;2.40;;;;;;;;;;5053189;28;20846;-87
2022/12/29 05:47:08;;;;;;;3.80;2.38;;;;;;;;;;5052971;28;20378;-87
2022/12/29 05:49:34;;;;;;;2.75;2.20;;;;;;;;;;5052880;28;20426;-88
2022/12/29 05:52:00;;;;;;;2.23;2.03;;;;;;;;;;5052956;28;20870;-88
2022/12/29 05:54:26;;;;;;;2.58;2.38;;;;;;;;;;5050948;28;20392;-87
2022/12/29 05:56:52;;;;;;;3.20;2.45;;;;;;;;;;5052404;28;20377;-87
2022/12/29 05:59:18;;;;;;;2.20;2.00;;;;;;;;;;5052110;28;20847;-87
2022/12/29 06:01:44;;;;;;;2.75;2.38;;;;;;;;;;5050366;28;20467;-85
2022/12/29 06:04:10;;;;;;;3.28;2.30;;;;;;;;;;5051505;28;20876;-84
2022/12/29 06:06:36;;;;;;;2.30;2.10;;;;;;;;;;5051649;28;20405;-85
2022/12/29 06:09:02;;;;;;;2.75;2.10;;;;;;;;;;5033512;28;20416;-86
2022/12/29 06:11:28;;;;;;;2.30;2.10;;;;;;;;;;5032301;28;20389;-86
2022/12/29 06:13:54;;;;;;;2.75;2.00;;;;;;;;;;5030732;28;20394;-86
2022/12/29 06:16:23;;;;;;;2.50;2.10;;;;;;;;;;5045447;28;20443;-87
2022/12/29 06:18:49;;;;;;;2.40;2.05;;;;;;;;;;5049878;28;20385;-87
2022/12/29 06:21:15;;;;;;;2.15;1.85;;;;;;;;;;5052602;28;20918;-87
2022/12/29 06:23:41;;;;;;;2.70;1.80;;;;;;;;;;5018166;28;20498;-88
2022/12/29 06:26:07;;;;;;;2.15;1.80;;;;;;;;;;5044724;28;20389;-86
2022/12/29 06:28:33;;;;;;;3.58;1.80;;;;;;;;;;5052178;28;20378;-86
2022/12/29 06:30:59;;;;;;;1.90;1.70;;;;;;;;;;5030261;28;21012;-87
2022/12/29 06:33:25;;;;;;;1.83;1.67;;;;;;;;;;5029769;28;20554;-87
2022/12/29 06:35:51;;;;;;;2.67;1.90;;;;;;;;;;5043098;28;20389;-87
2022/12/29 06:38:17;;;;;;;2.58;1.77;;;;;;;;;;5032613;28;20382;-87
2022/12/29 06:40:44;;;;;;;2.50;1.90;;;;;;;;;;5046549;28;20386;-85
2022/12/29 06:43:10;;;;;;;3.83;2.22;;;;;;;;;;5051515;28;20454;-89
2022/12/29 06:45:38;;;;;;;3.22;1.80;;;;;;;;;;5047416;28;20410;-85
2022/12/29 06:48:04;;;;;;;2.13;1.70;;;;;;;;;;5018917;28;20947;-87
2022/12/29 06:50:30;;;;;;;1.90;1.70;;;;;;;;;;5032677;28;20895;-85
2022/12/29 06:52:56;;;;;;;2.20;1.83;;;;;;;;;;5051658;28;20385;-87
2022/12/29 06:55:22;;;;;;;2.60;1.90;;;;;;;;;;5046942;28;21090;-86
2022/12/29 06:57:48;;;;;;;2.05;1.77;;;;;;;;;;5039346;28;20390;-86
2022/12/29 07:00:14;;;;;;;2.13;1.88;;;;;;;;;;5024075;28;20419;-86
2022/12/29 07:02:40;;;;;;;1.98;1.77;;;;;;;;;;5030321;28;20447;-85
2022/12/29 07:05:08;;;;;;;2.67;1.90;;;;;;;;;;5049043;28;20615;-86
2022/12/29 07:07:34;;;;;;;2.63;1.97;;;;;;;;;;5049015;28;20876;-87
2022/12/29 07:10:00;;;;;;;2.92;1.80;;;;;;;;;;5041675;28;20396;-87
2022/12/29 07:12:26;;;;;;;3.45;1.90;;;;;;;;;;5026855;28;20408;-87
2022/12/29 07:14:52;;;;;;;2.15;1.55;;;;;;;;;;5054894;28;20389;-86
2022/12/29 07:17:18;;;;;;;2.35;2.17;;;;;;;;;;5050644;28;20381;-87
2022/12/29 07:19:44;;;;;;;2.27;1.80;;;;;;;;;;5048569;28;20389;-86
2022/12/29 07:22:10;;;;;;;3.30;3.00;;;;;;;;;;5051502;28;20420;-87
2022/12/29 07:24:36;;;;;;;21.90;13.65;;;;;;;;;;5051413;28;20409;-88
2022/12/29 07:27:02;;;;;;;9.55;7.82;;;;;;;;;;5051456;28;20731;-87
2022/12/29 07:29:28;;;;;;;12.77;9.90;;;;;;;;;;5051341;28;20386;-87
2022/12/29 07:31:54;;;;;;;11.10;8.60;;;;;;;;;;5051080;28;20468;-87
2022/12/29 07:34:20;;;;;;;5.18;4.68;;;;;;;;;;5051068;28;20819;-87
2022/12/29 07:36:46;;;;;;;6.22;3.58;;;;;;;;;;5050971;28;20382;-88
2022/12/29 07:39:12;;;;;;;4.55;4.00;;;;;;;;;;5051165;28;20431;-87
2022/12/29 07:41:38;;;;;;;3.15;2.65;;;;;;;;;;5051259;28;20378;-89
2022/12/29 07:44:04;;;;;;;2.75;2.50;;;;;;;;;;5051145;28;20409;-88
2022/12/29 07:46:30;;;;;;;2.40;2.20;;;;;;;;;;5051306;28;20389;-87
2022/12/29 07:48:56;;;;;;;2.97;2.67;;;;;;;;;;5050991;28;20738;-87
2022/12/29 07:51:22;;;;;;;3.80;3.13;;;;;;;;;;5051171;28;20439;-87
2022/12/29 07:53:48;;;;;;;3.90;3.20;;;;;;;;;;5051153;28;20377;-86
2022/12/29 07:56:14;;;;;;;3.13;2.83;;;;;;;;;;5033551;28;20827;-87
2022/12/29 07:58:42;;;;;;;4.00;2.90;;;;;;;;;;5051081;28;20393;-86
2022/12/29 08:01:08;;;;;;;2.60;2.40;;;;;;;;;;5049220;28;20424;-86
2022/12/29 08:03:34;;;;;;;5.00;2.75;;;;;;;;;;5042836;28;20769;-86
2022/12/29 08:06:00;;;;;;;3.58;2.70;;;;;;;;;;5032266;28;20454;-87
2022/12/29 08:08:26;;;;;;;4.43;3.75;;;;;;;;;;5020353;28;20756;-87
2022/12/29 08:10:52;;;;;;;3.95;3.40;;;;;;;;;;5029077;28;20387;-86
2022/12/29 08:13:18;;;;;;;3.38;2.53;;;;;;;;;;5018069;28;20965;-85
2022/12/29 08:15:44;;;;;;;3.40;2.63;;;;;;;;;;5045162;28;20382;-86
2022/12/29 08:18:10;;;;;;;3.17;2.40;;;;;;;;;;5054041;28;20837;-86
2022/12/29 08:20:36;;;;;;;4.07;2.50;;;;;;;;;;5036628;28;20391;-84
2022/12/29 08:23:02;;;;;;;2.35;1.92;;;;;;;;;;5043039;28;20469;-85
2022/12/29 08:25:28;;;;;;;2.95;1.80;;;;;;;;;;5054514;28;20878;-85
2022/12/29 08:27:54;;;;;;;3.00;1.97;;;;;;;;;;5054420;28;20434;-85
2022/12/29 08:30:20;;;;;;;2.60;2.20;;;;;;;;;;5054194;28;20739;-85
2022/12/29 08:32:46;;;;;;;3.88;2.50;;;;;;;;;;5036451;28;20536;-85
2022/12/29 08:35:12;;;;;;;3.65;2.40;;;;;;;;;;5052975;28;20400;-86
2022/12/29 08:37:38;;;;;;;4.77;2.03;;;;;;;;;;5052679;28;20393;-85
2022/12/29 08:40:05;;;;;;;3.28;1.80;;;;;;;;;;5031684;28;20729;-84
2022/12/29 08:42:31;;;;;;;4.68;2.40;;;;;;;;;;5053858;28;20401;-85
2022/12/29 08:44:58;;;;;;;3.80;2.30;;;;;;;;;;5054109;28;20381;-87
2022/12/29 08:47:24;;;;;;;4.35;1.95;;;;;;;;;;5054128;28;20507;-87
2022/12/29 08:49:50;;;;;;;9.90;7.00;;;;;;;;;;5053856;28;20392;-86
2022/12/29 08:52:16;;;;;;;10.20;6.93;;;;;;;;;;5041653;28;20387;-86
2022/12/29 08:54:42;;;;;;;5.47;3.80;;;;;;;;;;5040509;28;20411;-87
2022/12/29 08:57:08;;;;;;;4.82;3.20;;;;;;;;;;5053163;28;20791;-86
2022/12/29 08:59:34;;;;;;;4.47;3.20;;;;;;;;;;5045382;28;20435;-86
2022/12/29 09:02:01;;;;;;;2.67;2.00;;;;;;;;;;5035896;28;20878;-87
2022/12/29 09:04:27;;;;;;;3.78;2.15;;;;;;;;;;5047418;28;20385;-87
2022/12/29 09:06:53;;;;;;;3.20;1.85;;;;;;;;;;5037301;28;20445;-87
2022/12/29 09:09:20;;;;;;;3.97;2.33;;;;;;;;;;5048497;28;20381;-89
2022/12/29 09:11:46;;;;;;;3.20;2.15;;;;;;;;;;5039916;28;20389;-87
2022/12/29 09:14:12;;;;;;;2.40;2.13;;;;;;;;;;5033988;28;20418;-86
2022/12/29 09:16:38;;;;;;;2.67;1.70;;;;;;;;;;5043518;28;20384;-87
2022/12/29 09:19:04;;;;;;;3.08;1.92;;;;;;;;;;5045118;28;20387;-87
2022/12/29 09:21:30;;;;;;;2.78;1.80;;;;;;;;;;5042465;28;20415;-87
2022/12/29 09:23:56;;;;;;;3.13;1.90;;;;;;;;;;5042722;28;20827;-85
2022/12/29 09:26:22;;;;;;;3.15;1.92;;;;;;;;;;5041497;28;20890;-84
2022/12/29 09:28:48;;;;;;;2.20;1.67;;;;;;;;;;5042441;28;20371;-86
2022/12/29 09:31:14;;;;;;;3.95;1.90;;;;;;;;;;5038934;28;20860;-86
2022/12/29 09:33:41;;;;;;;2.60;1.52;;;;;;;;;;5038553;28;20399;-85
2022/12/29 09:36:07;;;;;;;2.53;1.70;;;;;;;;;;5041441;28;20409;-85
2022/12/29 09:38:33;;;;;;;2.75;1.70;;;;;;;;;;5052881;28;20466;-86
2022/12/29 09:41:07;;;;;;;2.88;1.73;;;;;;;;;;5053074;28;20858;-86
2022/12/29 09:43:33;;;;;;;2.35;1.67;;;;;;;;;;5052900;28;20409;-86
2022/12/29 09:46:18;;;;;;;3.70;1.90;;;;;;;;;;5027984;28;20387;-87
2022/12/29 09:48:47;;;;;;;3.75;1.88;;;;;;;;;;5048256;28;20386;-87
2022/12/29 09:51:16;;;;;;;2.60;1.88;;;;;;;;;;5052739;28;20495;-86
2022/12/29 09:53:46;;;;;;;2.30;1.60;;;;;;;;;;5052976;28;20777;-87
2022/12/29 09:56:16;;;;;;;2.50;1.58;;;;;;;;;;5052885;28;20385;-87
2022/12/29 09:58:45;;;;;;;4.00;1.70;;;;;;;;;;5034489;28;20451;-87
2022/12/29 10:01:23;;;;;;;2.25;1.40;;;;;;;;;;5052571;28;20420;-87
2022/12/29 10:03:49;;;;;;;2.42;1.75;;;;;;;;;;5052689;28;20904;-86
2022/12/29 10:06:15;;;;;;;3.95;1.90;;;;;;;;;;5034563;28;20424;-85
2022/12/29 10:08:47;;;;;;;2.20;1.50;;;;;;;;;;5052505;28;20881;-86
2022/12/29 10:11:52;;;;;;;3.63;1.58;;;;;;;;;;5046140;28;20385;-86
2022/12/29 10:14:28;;;;;;;2.10;1.50;;;;;;;;;;4961994;28;20475;-85
2022/12/29 10:16:54;;;;;;;3.22;1.77;;;;;;;;;;4971748;28;20388;-86
2022/12/29 10:19:20;;;;;;;2.40;1.48;;;;;;;;;;4996205;28;20379;-87
2022/12/29 10:21:48;;;;;;;2.37;1.50;;;;;;;;;;5045288;28;20386;-85
2022/12/29 10:24:17;;;;;;;3.10;1.63;;;;;;;;;;5051218;28;20432;-86
2022/12/29 10:26:44;;;;;;;2.72;1.63;;;;;;;;;;5051725;28;20423;-87
2022/12/29 10:29:13;;;;;;;2.42;1.50;;;;;;;;;;5050896;28;20731;-86
2022/12/29 10:31:44;;;;;;;3.53;1.50;;;;;;;;;;5051046;28;20431;-85
2022/12/29 10:34:33;;;;;;;4.13;1.58;;;;;;;;;;5051995;28;20384;-86
2022/12/29 10:37:01;;;;;;;2.70;1.50;;;;;;;;;;5029870;28;20393;-88
2022/12/29 10:39:45;;;;;;;2.28;1.52;;;;;;;;;;5032727;28;20925;-88
2022/12/29 10:42:15;;;;;;;4.07;1.60;;;;;;;;;;5039094;28;20393;-87
2022/12/29 10:44:41;;;;;;;2.45;1.40;;;;;;;;;;5046972;28;20391;-88
2022/12/29 10:47:12;;;;;;;2.78;1.40;;;;;;;;;;5042094;28;20944;-87
2022/12/29 10:49:41;;;;;;;4.30;1.50;;;;;;;;;;5051920;28;20377;-86
2022/12/29 10:52:07;;;;;;;2.90;1.60;;;;;;;;;;5033261;28;20382;-85
2022/12/29 10:54:36;;;;;;;2.15;1.50;;;;;;;;;;5051264;28;20413;-85
2022/12/29 10:57:09;;;;;;;2.63;1.50;;;;;;;;;;5051860;28;20835;-88
2022/12/29 10:59:36;;;;;;;3.42;1.50;;;;;;;;;;5033695;28;20388;-87
2022/12/29 11:02:19;;;;;;;2.40;1.30;;;;;;;;;;5051914;28;20377;-87
2022/12/29 11:05:08;;;;;;;2.33;1.55;;;;;;;;;;5051385;28;20599;-87
2022/12/29 11:07:37;;;;;;;4.18;1.50;;;;;;;;;;4988434;28;20435;-86
2022/12/29 11:10:18;;;;;;;3.58;1.67;;;;;;;;;;5051558;28;20385;-87
2022/12/29 11:13:03;;;;;;;4.40;1.50;;;;;;;;;;5051509;28;20410;-86
2022/12/29 11:15:38;;;;;;;1.95;1.40;;;;;;;;;;5051612;28;20424;-87
2022/12/29 11:18:04;;;;;;;2.72;1.30;;;;;;;;;;5047255;28;20467;-88
2022/12/29 11:20:35;;;;;;;2.03;1.27;;;;;;;;;;5041619;28;20474;-87
2022/12/29 11:23:03;;;;;;;3.70;1.80;;;;;;;;;;5029913;28;20858;-86
2022/12/29 11:25:29;;;;;;;2.45;1.40;;;;;;;;;;5051633;28;20409;-87
2022/12/29 11:27:58;;;;;;;3.25;1.55;;;;;;;;;;5051492;28;20426;-86
2022/12/29 11:30:28;;;;;;;2.60;1.50;;;;;;;;;;5049970;28;20847;-86
2022/12/29 11:32:55;;;;;;;3.05;1.45;;;;;;;;;;5045392;28;20871;-87
2022/12/29 11:35:31;;;;;;;5.88;1.90;;;;;;;;;;5050997;28;20396;-87
2022/12/29 11:37:58;;;;;;;3.85;1.42;;;;;;;;;;5043361;28;20442;-87
2022/12/29 11:40:25;;;;;;;3.50;1.65;;;;;;;;;;5041042;28;20377;-87
2022/12/29 11:43:03;;;;;;;2.53;1.70;;;;;;;;;;5051266;28;20420;-86
2022/12/29 11:45:33;;;;;;;2.10;1.40;;;;;;;;;;5051138;28;20381;-85
2022/12/29 11:48:02;;;;;;;1.67;1.33;;;;;;;;;;5051213;28;20396;-84
2022/12/29 11:50:32;;;;;;;5.60;1.60;;;;;;;;;;5050898;28;20377;-85
2022/12/29 11:53:00;;;;;;;3.00;1.33;;;;;;;;;;5054200;28;20403;-87
2022/12/29 11:55:26;;;;;;;2.15;1.27;;;;;;;;;;5055076;28;20425;-85
2022/12/29 11:57:53;;;;;;;3.88;1.65;;;;;;;;;;5055012;28;20389;-85
2022/12/29 12:00:20;;;;;;;2.45;1.50;;;;;;;;;;5054501;28;20463;-86
2022/12/29 12:02:51;;;;;;;3.05;1.48;;;;;;;;;;5054627;28;20417;-88
2022/12/29 12:05:17;;;;;;;2.60;1.40;;;;;;;;;;5035453;28;20415;-87
2022/12/29 12:07:45;;;;;;;2.45;1.70;;;;;;;;;;5035889;28;20903;-85
2022/12/29 12:10:20;;;;;;;3.23;1.60;;;;;;;;;;5034067;28;20383;-85
2022/12/29 12:12:52;;;;;;;3.70;1.20;;;;;;;;;;5050569;28;20381;-85
2022/12/29 12:15:21;;;;;;;3.30;1.15;;;;;;;;;;5050112;28;20377;-85
2022/12/29 12:17:52;;;;;;;2.05;0.93;;;;;;;;;;5053854;28;20420;-85
2022/12/29 12:20:18;;;;;;;1.50;1.10;;;;;;;;;;5036625;28;20439;-87
2022/12/29 12:22:52;;;;;;;2.50;1.00;;;;;;;;;;5054298;28;20732;-83
2022/12/29 12:25:20;;;;;;;1.73;1.00;;;;;;;;;;5035931;28;20801;-84
2022/12/29 12:27:57;;;;;;;3.25;1.17;;;;;;;;;;5042645;28;20733;-84
2022/12/29 12:30:24;;;;;;;1.50;1.00;;;;;;;;;;5040334;28;20389;-84
2022/12/29 12:32:53;;;;;;;2.35;1.30;;;;;;;;;;5046934;28;20382;-84
2022/12/29 12:35:27;;;;;;;2.17;1.40;;;;;;;;;;5052310;28;20473;-84
2022/12/29 12:37:58;;;;;;;2.67;1.58;;;;;;;;;;5055324;28;20385;-83
2022/12/29 12:40:43;;;;;;;2.58;1.75;;;;;;;;;;5054902;28;20396;-83
2022/12/29 12:43:28;;;;;;;3.72;2.15;;;;;;;;;;5053874;28;20409;-84
2022/12/29 12:46:02;;;;;;;4.90;2.95;;;;;;;;;;5052690;28;20385;-85
2022/12/29 12:48:40;;;;;;;2.20;1.77;;;;;;;;;;5047525;28;20382;-84
2022/12/29 12:51:25;;;;;;;3.10;1.20;;;;;;;;;;5052505;28;20366;-84
2022/12/29 12:54:15;;;;;;;1.45;1.00;;;;;;;;;;5052797;28;20801;-86
2022/12/29 12:56:47;;;;;;;2.95;1.30;;;;;;;;;;4989670;28;20743;-84
2022/12/29 12:59:24;;;;;;;1.40;0.82;;;;;;;;;;5052058;28;20480;-84
2022/12/29 13:01:50;;;;;;;2.10;1.10;;;;;;;;;;5033609;28;20411;-84
2022/12/29 13:04:22;;;;;;;1.40;1.20;;;;;;;;;;5038409;28;20422;-86
2022/12/29 13:06:57;;;;;;;2.08;1.20;;;;;;;;;;5017092;28;20395;-85
2022/12/29 13:09:35;;;;;;;1.48;0.93;;;;;;;;;;5051640;28;20385;-85
2022/12/29 13:12:09;;;;;;;1.63;1.00;;;;;;;;;;5025570;28;20369;-83
2022/12/29 13:14:53;;;;;;;2.72;0.90;;;;;;;;;;5052261;28;21107;-83
2022/12/29 13:17:34;;;;;;;2.03;1.00;;;;;;;;;;5053597;28;20432;-84
2022/12/29 13:20:10;;;;;;;2.23;1.00;;;;;;;;;;5053041;28;20381;-84
2022/12/29 13:22:43;;;;;;;2.65;1.38;;;;;;;;;;5050628;28;20405;-85
2022/12/29 13:25:20;;;;;;;2.42;1.23;;;;;;;;;;5040547;28;20456;-83
2022/12/29 13:27:55;;;;;;;3.72;1.30;;;;;;;;;;5046924;28;20390;-85
2022/12/29 13:30:23;;;;;;;1.50;1.10;;;;;;;;;;5051317;28;20397;-85
2022/12/29 13:32:58;;;;;;;2.50;1.23;;;;;;;;;;5053246;28;20469;-84
2022/12/29 13:35:47;;;;;;;2.57;1.20;;;;;;;;;;5053322;28;20426;-85
2022/12/29 13:38:18;;;;;;;2.35;1.10;;;;;;;;;;5053238;28;20400;-85
2022/12/29 13:40:46;;;;;;;2.38;1.27;;;;;;;;;;5053213;28;20378;-85
2022/12/29 13:43:14;;;;;;;2.88;1.00;;;;;;;;;;5052998;28;20401;-85
2022/12/29 13:45:40;;;;;;;1.25;0.95;;;;;;;;;;5053058;28;20377;-85
2022/12/29 13:48:22;;;;;;;2.00;1.13;;;;;;;;;;5053146;28;20851;-85
2022/12/29 13:50:56;;;;;;;2.00;1.10;;;;;;;;;;5052919;28;20473;-85
2022/12/29 13:53:34;;;;;;;3.15;1.30;;;;;;;;;;5053069;28;20378;-85
2022/12/29 13:56:20;;;;;;;2.58;1.50;;;;;;;;;;5052909;28;20381;-84
2022/12/29 13:59:01;;;;;;;3.13;1.55;;;;;;;;;;5052833;28;20378;-84
2022/12/29 14:01:30;;;;;;;2.35;1.13;;;;;;;;;;5052673;28;20444;-84
2022/12/29 14:03:57;;;;;;;3.03;1.30;;;;;;;;;;5052686;28;20401;-85
2022/12/29 14:06:28;;;;;;;2.78;1.20;;;;;;;;;;5052710;28;20435;-85
2022/12/29 14:08:58;;;;;;;3.88;1.45;;;;;;;;;;5052613;28;20381;-85
2022/12/29 14:11:30;;;;;;;2.17;1.08;;;;;;;;;;5052561;28;20420;-85
2022/12/29 14:13:57;;;;;;;2.03;1.20;;;;;;;;;;5052319;28;20739;-85
2022/12/29 14:16:34;;;;;;;1.70;1.20;;;;;;;;;;5052345;28;20863;-84
2022/12/29 14:19:18;;;;;;;3.35;1.10;;;;;;;;;;5052350;28;20382;-85
2022/12/29 14:21:51;;;;;;;2.13;1.42;;;;;;;;;;5052366;28;20377;-85
2022/12/29 14:24:28;;;;;;;2.20;1.33;;;;;;;;;;5052322;28;20405;-85
2022/12/29 14:26:54;;;;;;;1.58;0.90;;;;;;;;;;5051252;28;20460;-84
2022/12/29 14:29:26;;;;;;;1.52;0.90;;;;;;;;;;5046459;28;20511;-85
2022/12/29 14:31:52;;;;;;;1.27;0.90;;;;;;;;;;5052055;28;20377;-85
2022/12/29 14:34:18;;;;;;;2.20;1.00;;;;;;;;;;5034275;28;20891;-84
2022/12/29 14:36:58;;;;;;;1.75;1.23;;;;;;;;;;5050306;28;20377;-84
2022/12/29 14:39:45;;;;;;;1.48;1.02;;;;;;;;;;5052076;28;20385;-84
2022/12/29 14:42:14;;;;;;;1.30;1.00;;;;;;;;;;5050024;28;20387;-85
2022/12/29 14:45:07;;;;;;;2.17;1.10;;;;;;;;;;5051951;28;20385;-84
2022/12/29 14:47:35;;;;;;;2.00;1.48;;;;;;;;;;5006671;28;20378;-84
2022/12/29 14:50:24;;;;;;;2.13;1.30;;;;;;;;;;5051895;28;20380;-84
2022/12/29 14:52:56;;;;;;;3.85;1.65;;;;;;;;;;5027283;28;20404;-84
2022/12/29 14:55:41;;;;;;;2.83;1.40;;;;;;;;;;5051914;28;20443;-84
2022/12/29 14:58:14;;;;;;;2.00;1.10;;;;;;;;;;5051821;28;20404;-85
2022/12/29 15:00:41;;;;;;;2.67;1.40;;;;;;;;;;5051550;28;20417;-85
2022/12/29 15:03:22;;;;;;;2.20;1.10;;;;;;;;;;5051752;28;20466;-85
2022/12/29 15:05:53;;;;;;;3.13;1.23;;;;;;;;;;5051657;28;20916;-85
2022/12/29 15:08:20;;;;;;;4.25;1.30;;;;;;;;;;5051749;28;20390;-84
2022/12/29 15:10:53;;;;;;;4.85;1.23;;;;;;;;;;5051145;28;20380;-84
2022/12/29 15:13:25;;;;;;;2.17;1.25;;;;;;;;;;5040223;28;20464;-85
2022/12/29 15:15:52;;;;;;;2.33;1.10;;;;;;;;;;5045981;28;20386;-84
2022/12/29 15:18:29;;;;;;;2.50;1.40;;;;;;;;;;5051005;28;20878;-84
2022/12/29 15:21:06;;;;;;;1.90;1.27;;;;;;;;;;5051571;28;20385;-84
2022/12/29 15:23:33;;;;;;;1.48;0.90;;;;;;;;;;5051488;28;20458;-84
2022/12/29 15:26:00;;;;;;;2.03;0.98;;;;;;;;;;5051565;28;20385;-84
2022/12/29 15:28:28;;;;;;;2.47;1.00;;;;;;;;;;5055550;28;20443;-84
2022/12/29 15:31:02;;;;;;;2.67;1.02;;;;;;;;;;5055401;28;20384;-84